createdAt,value
2022-08-01T00:01:03.249Z,3.03
2022-08-01T00:03:21.010Z,3.33
2022-08-01T00:05:38.810Z,3.13
2022-08-01T00:07:56.589Z,3.40
2022-08-01T00:10:16.162Z,3.03
2022-08-01T00:12:33.993Z,3.10
2022-08-01T00:14:51.990Z,3.72
2022-08-01T00:17:09.822Z,3.58
2022-08-01T00:19:27.574Z,3.28
2022-08-01T00:21:52.235Z,2.70
2022-08-01T00:24:15.360Z,3.40
2022-08-01T00:26:34.585Z,2.88
2022-08-01T00:28:52.385Z,3.05
2022-08-01T00:31:10.258Z,3.20
2022-08-01T00:33:28.044Z,3.00
2022-08-01T00:35:45.892Z,3.20
2022-08-01T00:38:03.772Z,3.30
2022-08-01T00:40:21.685Z,3.50
2022-08-01T00:42:43.462Z,3.15
2022-08-01T00:45:01.685Z,3.00
2022-08-01T00:47:19.477Z,3.05
2022-08-01T00:49:37.369Z,2.85
2022-08-01T00:51:55.582Z,3.53
2022-08-01T00:54:13.419Z,3.30
2022-08-01T00:56:34.699Z,2.95
2022-08-01T00:58:52.781Z,3.00
2022-08-01T01:01:11.355Z,2.83
2022-08-01T01:03:56.274Z,3.20
2022-08-01T01:06:28.031Z,2.75
2022-08-01T01:08:50.918Z,3.00
2022-08-01T01:11:15.847Z,3.47
2022-08-01T01:13:49.522Z,3.33
2022-08-01T01:16:12.434Z,3.20
2022-08-01T01:18:33.094Z,3.33
2022-08-01T01:20:55.128Z,2.88
2022-08-01T01:23:27.879Z,3.20
2022-08-01T01:25:56.410Z,3.38
2022-08-01T01:28:34.011Z,3.28
2022-08-01T01:30:53.333Z,3.60
2022-08-01T01:33:12.879Z,3.10
2022-08-01T01:35:33.658Z,2.97
2022-08-01T01:37:52.975Z,3.03
2022-08-01T01:40:11.808Z,3.35
2022-08-01T01:42:29.760Z,3.15
2022-08-01T01:44:48.055Z,2.90
2022-08-01T01:47:06.503Z,3.15
2022-08-01T01:49:25.822Z,2.90
2022-08-01T01:51:54.207Z,3.50
2022-08-01T01:54:21.270Z,3.35
2022-08-01T01:56:49.710Z,3.20
2022-08-01T01:59:07.467Z,3.05
2022-08-01T02:01:58.059Z,3.25
2022-08-01T02:04:05.540Z,3.40
2022-08-01T02:06:23.476Z,3.45
2022-08-01T02:08:42.203Z,3.53
2022-08-01T02:11:19.289Z,3.17
2022-08-01T02:13:38.465Z,3.00
2022-08-01T02:15:59.845Z,3.40
2022-08-01T02:18:18.382Z,3.10
2022-08-01T02:20:41.843Z,3.10
2022-08-01T02:23:06.688Z,3.30
2022-08-01T02:25:28.859Z,3.40
2022-08-01T02:28:10.014Z,3.42
2022-08-01T02:30:31.923Z,2.97
2022-08-01T02:32:53.531Z,3.22
2022-08-01T02:35:12.764Z,3.78
2022-08-01T02:37:31.480Z,3.28
2022-08-01T02:39:51.629Z,3.42
2022-08-01T02:42:10.194Z,3.33
2022-08-01T02:44:32.931Z,3.58
2022-08-01T02:49:09.450Z,3.08
2022-08-01T02:51:27.754Z,3.40
2022-08-01T02:53:46.170Z,3.33
2022-08-01T02:56:05.417Z,2.88
2022-08-01T02:58:29.413Z,3.38
2022-08-01T03:00:48.803Z,3.67
2022-08-01T03:03:07.419Z,3.50
2022-08-01T03:05:26.727Z,3.10
2022-08-01T03:07:44.827Z,3.40
2022-08-01T03:10:06.798Z,3.20
2022-08-01T03:12:25.918Z,3.58
2022-08-01T03:14:44.724Z,3.08
2022-08-01T03:17:03.720Z,3.13
2022-08-01T03:19:22.126Z,3.17
2022-08-01T03:21:40.799Z,3.53
2022-08-01T03:24:00.428Z,3.60
2022-08-01T03:26:19.041Z,3.30
2022-08-01T03:28:37.721Z,3.13
2022-08-01T03:30:55.868Z,3.25
2022-08-01T03:33:14.666Z,3.50
2022-08-01T03:35:47.746Z,3.40
2022-08-01T03:40:57.719Z,3.20
2022-08-01T03:43:32.986Z,3.10
2022-08-01T03:45:53.506Z,3.20
2022-08-01T03:48:14.656Z,4.10
2022-08-01T03:50:34.927Z,3.75
2022-08-01T03:52:53.033Z,3.55
2022-08-01T03:55:12.361Z,3.85
2022-08-01T03:57:36.647Z,3.42
2022-08-01T03:59:55.113Z,3.65
2022-08-01T04:02:14.835Z,3.33
2022-08-01T04:04:32.763Z,3.25
2022-08-01T04:06:54.898Z,3.50
2022-08-01T04:09:15.690Z,3.30
2022-08-01T04:11:34.489Z,3.42
2022-08-01T04:13:54.163Z,3.35
2022-08-01T04:16:13.144Z,3.40
2022-08-01T04:18:30.927Z,3.50
2022-08-01T04:20:48.848Z,3.97
2022-08-01T04:23:07.064Z,3.45
2022-08-01T04:25:31.430Z,3.40
2022-08-01T04:27:52.194Z,3.83
2022-08-01T04:30:10.991Z,3.53
2022-08-01T04:32:37.446Z,3.30
2022-08-01T04:34:56.962Z,4.10
2022-08-01T04:37:17.449Z,3.70
2022-08-01T04:39:50.627Z,3.58
2022-08-01T04:42:09.361Z,3.20
2022-08-01T04:44:32.337Z,3.35
2022-08-01T04:46:51.574Z,3.60
2022-08-01T04:49:10.375Z,3.50
2022-08-01T04:51:28.452Z,3.28
2022-08-01T04:53:49.577Z,3.55
2022-08-01T04:56:07.420Z,3.45
2022-08-01T04:58:25.295Z,3.25
2022-08-01T05:00:43.141Z,3.70
2022-08-01T05:03:00.870Z,3.85
2022-08-01T05:05:18.683Z,3.70
2022-08-01T05:07:45.015Z,3.60
2022-08-01T05:10:05.689Z,4.05
2022-08-01T05:12:24.104Z,4.07
2022-08-01T05:14:42.474Z,4.80
2022-08-01T05:17:01.110Z,4.88
2022-08-01T05:19:18.882Z,4.18
2022-08-01T05:21:37.189Z,4.05
2022-08-01T05:23:54.989Z,4.43
2022-08-01T05:26:15.050Z,3.70
2022-08-01T05:28:33.512Z,4.13
2022-08-01T05:30:51.228Z,3.92
2022-08-01T05:33:09.032Z,4.03
2022-08-01T05:35:48.335Z,4.30
2022-08-01T05:38:04.694Z,3.78
2022-08-01T05:40:22.441Z,4.13
2022-08-01T05:42:40.351Z,4.18
2022-08-01T05:44:58.129Z,3.75
2022-08-01T05:47:15.872Z,4.20
2022-08-01T05:49:33.795Z,3.78
2022-08-01T05:51:51.688Z,4.50
2022-08-01T05:54:09.577Z,3.60
2022-08-01T05:56:32.122Z,3.83
2022-08-01T05:58:51.594Z,3.95
2022-08-01T06:01:09.367Z,3.50
2022-08-01T06:03:27.219Z,3.60
2022-08-01T06:05:45.042Z,3.65
2022-08-01T06:08:02.814Z,3.85
2022-08-01T06:10:20.706Z,4.20
2022-08-01T06:12:39.011Z,4.70
2022-08-01T06:14:56.761Z,3.30
2022-08-01T06:17:14.746Z,4.03
2022-08-01T06:19:32.977Z,3.80
2022-08-01T06:21:51.015Z,3.97
2022-08-01T06:24:09.002Z,3.90
2022-08-01T06:26:26.766Z,4.15
2022-08-01T06:28:44.542Z,4.30
2022-08-01T06:31:02.342Z,3.92
2022-08-01T06:33:20.081Z,3.92
2022-08-01T06:35:38.059Z,4.00
2022-08-01T06:37:55.824Z,4.00
2022-08-01T06:40:17.119Z,4.15
2022-08-01T06:42:38.903Z,3.77
2022-08-01T06:44:56.709Z,4.15
2022-08-01T06:47:14.505Z,4.55
2022-08-01T06:49:32.337Z,3.88
2022-08-01T06:51:50.213Z,4.53
2022-08-01T06:54:07.985Z,3.95
2022-08-01T06:56:25.795Z,3.97
2022-08-01T06:58:43.652Z,4.30
2022-08-01T07:01:01.637Z,4.25
2022-08-01T07:03:19.464Z,7.78
2022-08-01T07:05:37.178Z,5.90
2022-08-01T07:07:55.245Z,4.45
2022-08-01T07:10:13.173Z,4.53
2022-08-01T07:12:31.041Z,4.68
2022-08-01T07:14:48.869Z,4.03
2022-08-01T07:17:06.617Z,4.25
2022-08-01T07:19:24.370Z,4.00
2022-08-01T07:21:42.291Z,4.40
2022-08-01T07:24:13.377Z,4.45
2022-08-01T07:26:32.141Z,3.50
2022-08-01T07:28:49.942Z,4.00
2022-08-01T07:31:07.808Z,3.80
2022-08-01T07:33:25.635Z,3.95
2022-08-01T07:35:43.531Z,4.15
2022-08-01T07:38:01.773Z,3.75
2022-08-01T07:40:20.435Z,3.90
2022-08-01T07:42:38.379Z,4.47
2022-08-01T07:44:56.210Z,4.13
2022-08-01T07:47:14.038Z,4.20
2022-08-01T07:49:36.075Z,4.55
2022-08-01T07:52:03.247Z,4.30
2022-08-01T07:54:33.755Z,4.32
2022-08-01T07:56:52.463Z,4.18
2022-08-01T07:59:10.356Z,4.07
2022-08-01T08:01:28.561Z,4.28
2022-08-01T08:03:46.305Z,3.97
2022-08-01T08:06:04.119Z,4.43
2022-08-01T08:08:22.030Z,4.28
2022-08-01T08:10:39.806Z,3.85
2022-08-01T08:12:59.262Z,3.75
2022-08-01T08:15:17.177Z,4.00
2022-08-01T08:17:35.922Z,4.40
2022-08-01T08:19:54.718Z,4.70
2022-08-01T08:22:12.802Z,4.35
2022-08-01T08:24:30.560Z,4.47
2022-08-01T08:26:49.288Z,4.15
2022-08-01T08:29:10.079Z,4.50
2022-08-01T08:31:51.496Z,4.18
2022-08-01T08:34:05.762Z,4.32
2022-08-01T08:36:30.925Z,4.93
2022-08-01T08:38:49.368Z,4.53
2022-08-01T08:41:07.367Z,4.18
2022-08-01T08:43:26.965Z,4.32
2022-08-01T08:45:59.490Z,4.40
2022-08-01T08:48:18.581Z,4.78
2022-08-01T08:50:37.973Z,3.80
2022-08-01T08:52:57.369Z,4.00
2022-08-01T08:55:17.482Z,3.97
2022-08-01T08:57:37.823Z,4.43
2022-08-01T08:59:56.945Z,4.00
2022-08-01T09:02:14.942Z,3.85
2022-08-01T09:04:32.925Z,3.80
2022-08-01T09:06:50.773Z,3.95
2022-08-01T09:09:09.321Z,3.92
2022-08-01T09:11:27.402Z,3.95
2022-08-01T09:14:03.175Z,3.97
2022-08-01T09:16:21.004Z,3.60
2022-08-01T09:18:43.811Z,3.83
2022-08-01T09:21:22.124Z,3.42
2022-08-01T09:23:53.983Z,3.60
2022-08-01T09:26:12.941Z,3.42
2022-08-01T09:28:31.373Z,3.95
2022-08-01T09:30:49.233Z,3.90
2022-08-01T09:33:18.168Z,3.47
2022-08-01T09:35:43.232Z,3.47
2022-08-01T09:38:20.347Z,3.55
2022-08-01T09:40:52.254Z,4.03
2022-08-01T09:43:15.104Z,3.20
2022-08-01T09:45:41.752Z,3.22
2022-08-01T09:48:08.064Z,3.80
2022-08-01T09:50:40.110Z,2.92
2022-08-01T09:52:58.167Z,3.13
2022-08-01T09:55:22.944Z,3.28
2022-08-01T09:57:40.709Z,3.35
2022-08-01T10:00:02.322Z,2.92
2022-08-01T10:02:37.438Z,3.13
2022-08-01T10:04:59.955Z,3.58
2022-08-01T10:07:21.729Z,3.33
2022-08-01T10:10:16.093Z,3.13
2022-08-01T10:12:34.334Z,3.08
2022-08-01T10:14:53.265Z,2.85
2022-08-01T10:17:18.460Z,3.10
2022-08-01T10:19:39.051Z,3.20
2022-08-01T10:22:02.260Z,3.40
2022-08-01T10:24:21.045Z,3.00
2022-08-01T10:26:40.005Z,2.97
2022-08-01T10:28:57.978Z,3.47
2022-08-01T10:31:20.729Z,2.88
2022-08-01T10:33:50.427Z,2.90
2022-08-01T10:36:11.406Z,2.80
2022-08-01T10:38:29.546Z,2.65
2022-08-01T10:40:47.355Z,2.85
2022-08-01T10:43:06.134Z,3.10
2022-08-01T10:45:24.552Z,2.92
2022-08-01T10:47:49.728Z,2.65
2022-08-01T10:50:15.037Z,2.80
2022-08-01T10:52:39.960Z,2.95
2022-08-01T10:55:10.630Z,2.63
2022-08-01T10:57:42.844Z,2.80
2022-08-01T11:00:10.511Z,2.88
2022-08-01T11:02:32.108Z,3.08
2022-08-01T11:04:50.415Z,2.45
2022-08-01T11:07:10.332Z,2.67
2022-08-01T11:09:37.542Z,2.90
2022-08-01T11:12:06.281Z,2.60
2022-08-01T11:14:26.601Z,2.65
2022-08-01T11:16:53.319Z,2.20
2022-08-01T11:19:11.749Z,2.55
2022-08-01T11:21:59.057Z,2.58
2022-08-01T11:24:38.695Z,2.70
2022-08-01T11:27:36.017Z,2.10
2022-08-01T11:30:13.414Z,2.40
2022-08-01T11:32:42.462Z,2.20
2022-08-01T11:35:09.243Z,2.00
2022-08-01T11:37:31.212Z,2.63
2022-08-01T11:40:08.873Z,2.10
2022-08-01T11:42:26.950Z,3.17
2022-08-01T11:44:51.596Z,2.30
2022-08-01T11:47:13.430Z,2.78
2022-08-01T11:49:49.943Z,1.80
2022-08-01T11:52:10.876Z,2.00
2022-08-01T11:54:35.606Z,2.10
2022-08-01T11:56:56.676Z,2.03
2022-08-01T11:59:15.504Z,1.52
2022-08-01T12:01:34.572Z,1.55
2022-08-01T12:03:57.718Z,1.50
2022-08-01T12:06:15.456Z,1.60
2022-08-01T12:08:37.439Z,1.95
2022-08-01T12:11:02.422Z,1.75
2022-08-01T12:13:21.058Z,1.90
2022-08-01T12:15:39.790Z,1.70
2022-08-01T12:18:01.803Z,1.85
2022-08-01T12:20:23.067Z,1.80
2022-08-01T12:22:41.439Z,1.45
2022-08-01T12:25:06.814Z,1.80
2022-08-01T12:27:29.087Z,1.52
2022-08-01T12:29:48.072Z,2.10
2022-08-01T12:32:06.147Z,1.80
2022-08-01T12:34:28.989Z,2.33
2022-08-01T12:36:46.760Z,1.77
2022-08-01T12:39:04.730Z,2.08
2022-08-01T12:41:22.494Z,1.60
2022-08-01T12:43:41.290Z,1.50
2022-08-01T12:46:00.913Z,1.73
2022-08-01T12:48:19.989Z,1.52
2022-08-01T12:50:38.862Z,1.83
2022-08-01T12:52:56.932Z,1.50
2022-08-01T12:55:16.181Z,1.70
2022-08-01T12:57:34.272Z,1.50
2022-08-01T12:59:54.639Z,1.52
2022-08-01T13:02:12.432Z,1.40
2022-08-01T13:04:30.227Z,1.45
2022-08-01T13:06:48.651Z,1.45
2022-08-01T13:09:11.540Z,1.30
2022-08-01T13:11:29.480Z,1.20
2022-08-01T13:13:51.495Z,1.52
2022-08-01T13:16:12.551Z,1.40
2022-08-01T13:18:35.103Z,1.17
2022-08-01T13:21:08.626Z,1.50
2022-08-01T13:24:01.556Z,1.25
2022-08-01T13:26:05.053Z,1.40
2022-08-01T13:28:27.791Z,1.40
2022-08-01T13:31:00.679Z,1.52
2022-08-01T13:35:36.284Z,1.38
2022-08-01T13:37:54.316Z,1.63
2022-08-01T13:40:12.770Z,1.33
2022-08-01T13:42:30.598Z,1.40
2022-08-01T13:44:48.386Z,1.40
2022-08-01T13:47:15.519Z,1.40
2022-08-01T13:49:38.027Z,1.30
2022-08-01T13:51:56.165Z,1.55
2022-08-01T13:54:13.945Z,1.20
2022-08-01T13:56:32.108Z,1.20
2022-08-01T13:58:49.906Z,1.42
2022-08-01T14:01:07.764Z,1.42
2022-08-01T14:03:33.252Z,1.38
2022-08-01T14:05:58.652Z,1.98
2022-08-01T14:08:16.927Z,1.40
2022-08-01T14:10:34.713Z,1.50
2022-08-01T14:12:52.795Z,1.23
2022-08-01T14:15:14.728Z,1.23
2022-08-01T14:17:48.019Z,1.40
2022-08-01T14:20:06.596Z,1.60
2022-08-01T14:22:24.356Z,1.48
2022-08-01T14:24:42.128Z,1.40
2022-08-01T14:27:00.912Z,1.30
2022-08-01T14:29:18.645Z,1.20
2022-08-01T14:31:36.509Z,1.25
2022-08-01T14:33:54.322Z,2.03
2022-08-01T14:36:30.216Z,1.10
2022-08-01T14:38:49.584Z,1.40
2022-08-01T14:41:07.393Z,1.40
2022-08-01T14:43:32.749Z,1.50
2022-08-01T14:45:52.057Z,1.40
2022-08-01T14:48:09.804Z,1.38
2022-08-01T14:50:28.898Z,1.60
2022-08-01T14:52:46.728Z,1.63
2022-08-01T14:55:05.253Z,1.70
2022-08-01T14:57:23.034Z,1.52
2022-08-01T14:59:40.804Z,1.50
2022-08-01T15:01:58.593Z,1.40
2022-08-01T15:04:16.582Z,1.80
2022-08-01T15:06:34.602Z,1.27
2022-08-01T15:08:52.802Z,1.83
2022-08-01T15:11:10.824Z,1.88
2022-08-01T15:13:28.599Z,1.48
2022-08-01T15:15:46.308Z,1.90
2022-08-01T15:18:04.577Z,1.50
2022-08-01T15:20:22.419Z,2.00
2022-08-01T15:22:40.178Z,1.77
2022-08-01T15:24:58.789Z,2.08
2022-08-01T15:27:16.786Z,1.85
2022-08-01T15:29:35.008Z,1.98
2022-08-01T15:31:52.847Z,2.00
2022-08-01T15:34:10.650Z,1.90
2022-08-01T15:36:28.443Z,2.17
2022-08-01T15:38:46.297Z,2.17
2022-08-01T15:41:04.117Z,2.15
2022-08-01T15:43:24.103Z,2.17
2022-08-01T15:45:47.855Z,2.00
2022-08-01T15:48:06.260Z,1.98
2022-08-01T15:50:24.048Z,2.10
2022-08-01T15:52:41.787Z,2.30
2022-08-01T15:54:59.611Z,2.15
2022-08-01T15:57:17.599Z,2.50
2022-08-01T15:59:37.910Z,2.08
2022-08-01T16:01:59.274Z,1.77
2022-08-01T16:04:17.719Z,1.80
2022-08-01T16:06:36.226Z,1.90
2022-08-01T16:08:54.054Z,1.95
2022-08-01T16:11:11.861Z,2.35
2022-08-01T16:13:29.604Z,2.45
2022-08-01T16:15:47.375Z,2.10
2022-08-01T16:18:08.766Z,2.33
2022-08-01T16:20:26.590Z,2.10
2022-08-01T16:22:44.526Z,2.13
2022-08-01T16:25:02.412Z,1.98
2022-08-01T16:27:23.302Z,2.28
2022-08-01T16:29:44.766Z,2.45
2022-08-01T16:32:24.088Z,1.77
2022-08-01T16:34:44.557Z,2.00
2022-08-01T16:37:07.552Z,2.00
2022-08-01T16:39:25.851Z,2.28
2022-08-01T16:41:43.648Z,1.85
2022-08-01T16:44:01.481Z,2.20
2022-08-01T16:46:19.807Z,2.38
2022-08-01T16:48:37.647Z,1.80
2022-08-01T16:50:58.072Z,2.10
2022-08-01T16:53:17.106Z,2.20
2022-08-01T16:55:49.497Z,1.98
2022-08-01T16:58:07.965Z,1.90
2022-08-01T17:00:29.776Z,1.92
2022-08-01T17:02:47.704Z,2.40
2022-08-01T17:05:08.471Z,2.22
2022-08-01T17:07:27.022Z,2.60
2022-08-01T17:09:46.277Z,2.72
2022-08-01T17:12:04.527Z,2.58
2022-08-01T17:14:22.399Z,2.40
2022-08-01T17:16:40.515Z,2.40
2022-08-01T17:18:58.724Z,2.30
2022-08-01T17:21:18.138Z,2.50
2022-08-01T17:23:35.956Z,2.50
2022-08-01T17:25:53.854Z,2.30
2022-08-01T17:28:11.990Z,2.40
2022-08-01T17:30:30.070Z,2.33
2022-08-01T17:32:48.179Z,2.50
2022-08-01T17:35:06.250Z,2.40
2022-08-01T17:37:24.037Z,2.40
2022-08-01T17:39:41.827Z,2.35
2022-08-01T17:41:59.612Z,2.50
2022-08-01T17:44:17.390Z,3.40
2022-08-01T17:46:35.315Z,2.78
2022-08-01T17:48:53.285Z,3.15
2022-08-01T17:51:11.110Z,3.55
2022-08-01T17:53:29.048Z,3.47
2022-08-01T17:55:54.465Z,2.90
2022-08-01T17:58:17.654Z,3.17
2022-08-01T18:00:55.357Z,2.70
2022-08-01T18:03:19.220Z,2.70
2022-08-01T18:05:48.068Z,2.80
2022-08-01T18:08:11.037Z,3.10
2022-08-01T18:10:28.889Z,3.03
2022-08-01T18:12:46.662Z,3.03
2022-08-01T18:15:06.136Z,2.40
2022-08-01T18:17:24.537Z,3.22
2022-08-01T18:19:46.872Z,2.60
2022-08-01T18:22:04.809Z,2.40
2022-08-01T18:24:22.822Z,2.80
2022-08-01T18:26:40.626Z,2.50
2022-08-01T18:28:58.445Z,2.50
2022-08-01T18:31:17.636Z,2.47
2022-08-01T18:33:36.006Z,2.30
2022-08-01T18:35:54.433Z,2.50
2022-08-01T18:38:12.442Z,2.63
2022-08-01T18:40:31.205Z,2.30
2022-08-01T18:42:49.208Z,2.40
2022-08-01T18:45:07.284Z,2.63
2022-08-01T18:47:25.059Z,2.63
2022-08-01T18:49:43.237Z,2.30
2022-08-01T18:52:01.491Z,2.80
2022-08-01T18:54:19.235Z,2.90
2022-08-01T18:56:37.046Z,2.78
2022-08-01T18:58:55.052Z,2.90
2022-08-01T19:01:14.120Z,2.88
2022-08-01T19:03:31.964Z,2.70
2022-08-01T19:05:49.855Z,3.15
2022-08-01T19:08:08.224Z,2.50
2022-08-01T19:10:26.578Z,2.38
2022-08-01T19:12:44.434Z,2.67
2022-08-01T19:15:05.138Z,2.75
2022-08-01T19:17:22.971Z,2.88
2022-08-01T19:19:44.013Z,3.00
2022-08-01T19:22:01.786Z,2.75
2022-08-01T19:24:23.959Z,3.28
2022-08-01T19:26:46.136Z,2.58
2022-08-01T19:29:10.016Z,2.83
2022-08-01T19:31:29.700Z,2.92
2022-08-01T19:33:47.803Z,3.10
2022-08-01T19:36:05.820Z,2.90
2022-08-01T19:38:23.857Z,3.08
2022-08-01T19:40:41.906Z,2.90
2022-08-01T19:43:00.254Z,3.10
2022-08-01T19:45:18.226Z,2.90
2022-08-01T19:47:52.002Z,3.15
2022-08-01T19:50:14.140Z,3.00
2022-08-01T19:52:35.338Z,3.17
2022-08-01T19:54:57.194Z,3.10
2022-08-01T19:57:16.485Z,2.80
2022-08-01T19:59:35.188Z,3.42
2022-08-01T20:01:54.520Z,2.92
2022-08-01T20:04:12.670Z,2.97
2022-08-01T20:06:30.441Z,3.05
2022-08-01T20:08:48.989Z,2.72
2022-08-01T20:11:13.341Z,3.17
2022-08-01T20:13:36.781Z,2.90
2022-08-01T20:15:57.769Z,3.33
2022-08-01T20:18:15.535Z,2.90
2022-08-01T20:20:35.342Z,3.35
2022-08-01T20:22:56.673Z,3.00
2022-08-01T20:25:14.514Z,2.92
2022-08-01T20:27:32.334Z,3.45
2022-08-01T20:29:50.541Z,2.75
2022-08-01T20:32:09.068Z,3.33
2022-08-01T20:34:27.485Z,2.92
2022-08-01T20:36:54.410Z,3.17
2022-08-01T20:39:15.220Z,3.13
2022-08-01T20:41:33.393Z,3.05
2022-08-01T20:43:55.136Z,3.22
2022-08-01T20:46:13.584Z,3.10
2022-08-01T20:48:31.588Z,3.13
2022-08-01T20:51:08.965Z,3.58
2022-08-01T20:53:27.135Z,3.25
2022-08-01T20:55:46.185Z,3.10
2022-08-01T20:58:04.455Z,3.72
2022-08-01T21:00:22.638Z,3.28
2022-08-01T21:03:03.087Z,3.05
2022-08-01T21:05:35.904Z,3.03
2022-08-01T21:07:59.445Z,3.60
2022-08-01T21:10:18.103Z,2.88
2022-08-01T21:12:40.868Z,2.97
2022-08-01T21:14:59.867Z,3.05
2022-08-01T21:17:35.601Z,3.30
2022-08-01T21:19:55.547Z,3.30
2022-08-01T21:22:27.125Z,3.10
2022-08-01T21:24:58.748Z,3.35
2022-08-01T21:27:18.417Z,3.10
2022-08-01T21:29:37.353Z,3.30
2022-08-01T21:32:15.496Z,3.13
2022-08-01T21:34:34.053Z,3.72
2022-08-01T21:36:53.201Z,3.40
2022-08-01T21:39:11.277Z,3.83
2022-08-01T21:42:05.131Z,3.15
2022-08-01T21:44:15.242Z,3.25
2022-08-01T21:46:34.614Z,3.58
2022-08-01T21:48:52.590Z,3.38
2022-08-01T21:51:29.347Z,3.17
2022-08-01T21:53:53.390Z,3.20
2022-08-01T21:56:18.953Z,3.72
2022-08-01T21:58:50.278Z,2.90
2022-08-01T22:01:14.233Z,3.25
2022-08-01T22:03:37.054Z,3.30
2022-08-01T22:05:55.382Z,3.25
2022-08-01T22:08:14.320Z,3.28
2022-08-01T22:10:32.227Z,3.33
2022-08-01T22:12:50.115Z,2.70
2022-08-01T22:15:08.290Z,3.90
2022-08-01T22:17:26.090Z,3.30
2022-08-01T22:19:47.697Z,3.25
2022-08-01T22:22:08.517Z,3.15
2022-08-01T22:24:46.227Z,3.17
2022-08-01T22:27:04.642Z,3.28
2022-08-01T22:29:22.694Z,3.25
2022-08-01T22:31:40.801Z,2.92
2022-08-01T22:33:58.750Z,3.30
2022-08-01T22:36:16.708Z,3.00
2022-08-01T22:38:34.844Z,3.25
2022-08-01T22:40:54.014Z,3.10
2022-08-01T22:43:16.562Z,3.40
2022-08-01T22:45:48.370Z,3.45
2022-08-01T22:48:06.120Z,3.42
2022-08-01T22:50:40.505Z,3.30
2022-08-01T22:53:12.963Z,3.15
2022-08-01T22:55:59.292Z,3.22
2022-08-01T22:58:08.985Z,2.90
2022-08-01T23:00:29.671Z,3.28
2022-08-01T23:02:48.793Z,3.08
2022-08-01T23:05:08.800Z,3.45
2022-08-01T23:07:29.185Z,3.47
2022-08-01T23:09:53.223Z,3.10
2022-08-01T23:12:13.755Z,3.50
2022-08-01T23:14:34.623Z,3.45
2022-08-01T23:16:53.389Z,3.95
2022-08-01T23:19:11.257Z,3.40
2022-08-01T23:21:29.473Z,3.30
2022-08-01T23:23:47.866Z,2.97
2022-08-01T23:26:06.283Z,3.30
2022-08-01T23:28:24.547Z,3.38
2022-08-01T23:30:42.643Z,2.97
2022-08-01T23:33:00.637Z,3.38
2022-08-01T23:35:18.515Z,3.45
2022-08-01T23:37:36.429Z,3.58
2022-08-01T23:39:54.339Z,3.70
2022-08-01T23:42:13.025Z,3.40
2022-08-01T23:44:31.557Z,3.38
2022-08-01T23:46:49.733Z,3.45
2022-08-01T23:49:07.475Z,3.08
2022-08-01T23:51:25.338Z,3.20
2022-08-01T23:53:43.128Z,3.40
2022-08-01T23:56:03.069Z,3.35
2022-08-01T23:58:20.820Z,3.60
